createdAt,value
2023-05-02T00:02:12.585Z,7.85
2023-05-02T00:04:39.118Z,6.32
2023-05-02T00:07:05.892Z,6.40
2023-05-02T00:09:32.345Z,7.13
2023-05-02T00:11:58.686Z,6.50
2023-05-02T00:14:25.181Z,6.30
2023-05-02T00:16:51.771Z,5.70
2023-05-02T00:19:18.277Z,5.28
2023-05-02T00:21:47.752Z,4.80
2023-05-02T00:24:14.193Z,5.13
2023-05-02T00:26:40.539Z,5.03
2023-05-02T00:29:07.152Z,4.32
2023-05-02T00:31:33.547Z,4.43
2023-05-02T00:33:59.963Z,3.90
2023-05-02T00:36:26.222Z,3.90
2023-05-02T00:38:52.948Z,3.50
2023-05-02T00:41:19.246Z,4.07
2023-05-02T00:43:45.545Z,3.03
2023-05-02T00:46:12.020Z,2.97
2023-05-02T00:48:39.555Z,2.90
2023-05-02T00:51:06.040Z,2.95
2023-05-02T00:53:32.402Z,2.90
2023-05-02T00:55:59.070Z,2.45
2023-05-02T00:58:26.477Z,3.05
2023-05-02T01:01:11.216Z,2.67
2023-05-02T01:03:59.804Z,2.97
2023-05-02T01:06:41.294Z,2.53
2023-05-02T01:09:34.161Z,2.85
2023-05-02T01:12:27.487Z,2.55
2023-05-02T01:14:57.071Z,2.50
2023-05-02T01:17:28.023Z,2.10
2023-05-02T01:19:58.757Z,2.50
2023-05-02T01:22:28.882Z,2.20
2023-05-02T01:25:16.883Z,2.25
2023-05-02T01:27:58.504Z,2.20
2023-05-02T01:30:26.961Z,2.45
2023-05-02T01:32:55.304Z,2.30
2023-05-02T01:35:24.095Z,2.20
2023-05-02T01:37:52.440Z,2.30
2023-05-02T01:40:20.774Z,1.93
2023-05-02T01:42:50.123Z,2.33
2023-05-02T01:45:18.174Z,1.92
2023-05-02T01:47:45.248Z,1.63
2023-05-02T01:50:14.455Z,1.50
2023-05-02T01:52:41.442Z,1.37
2023-05-02T01:55:10.769Z,1.40
2023-05-02T01:57:40.072Z,1.30
2023-05-02T02:00:08.120Z,1.08
2023-05-02T02:02:35.761Z,1.42
2023-05-02T02:05:06.007Z,1.50
2023-05-02T02:07:32.501Z,1.10
2023-05-02T02:10:00.248Z,1.40
2023-05-02T02:12:41.630Z,1.15
2023-05-02T02:15:19.479Z,1.70
2023-05-02T02:17:49.706Z,1.60
2023-05-02T02:20:17.275Z,1.40
2023-05-02T02:22:44.757Z,1.50
2023-05-02T02:25:14.123Z,1.27
2023-05-02T02:27:42.629Z,1.50
2023-05-02T02:30:10.259Z,1.25
2023-05-02T02:32:36.683Z,1.60
2023-05-02T02:35:03.563Z,1.20
2023-05-02T02:37:37.594Z,1.40
2023-05-02T02:40:24.484Z,1.42
2023-05-02T02:42:50.811Z,1.20
2023-05-02T02:45:30.077Z,1.80
2023-05-02T02:48:02.476Z,1.30
2023-05-02T02:50:37.716Z,1.48
2023-05-02T02:53:11.852Z,1.35
2023-05-02T02:56:13.758Z,1.38
2023-05-02T02:58:57.951Z,1.40
2023-05-02T03:01:27.725Z,1.33
2023-05-02T03:03:55.202Z,1.50
2023-05-02T03:06:22.047Z,1.30
2023-05-02T03:08:49.489Z,1.63
2023-05-02T03:11:15.977Z,1.40
2023-05-02T03:13:42.371Z,1.60
2023-05-02T03:16:39.797Z,1.45
2023-05-02T03:19:07.419Z,1.60
2023-05-02T03:21:34.645Z,1.30
2023-05-02T03:24:02.381Z,1.60
2023-05-02T03:26:28.822Z,1.20
2023-05-02T03:28:56.207Z,1.65
2023-05-02T03:31:24.739Z,1.50
2023-05-02T03:33:52.617Z,1.40
2023-05-02T03:36:18.902Z,1.40
2023-05-02T03:38:45.211Z,1.20
2023-05-02T03:41:11.502Z,1.40
2023-05-02T03:43:37.764Z,1.70
2023-05-02T03:46:06.259Z,1.40
2023-05-02T03:48:32.588Z,1.70
2023-05-02T03:50:58.845Z,1.60
2023-05-02T03:53:25.185Z,1.50
2023-05-02T03:55:51.461Z,1.27
2023-05-02T03:58:17.781Z,1.70
2023-05-02T04:00:44.077Z,2.15
2023-05-02T04:03:10.537Z,1.58
2023-05-02T04:05:36.911Z,1.92
2023-05-02T04:08:03.280Z,1.50
2023-05-02T04:10:29.666Z,1.70
2023-05-02T04:12:56.103Z,1.65
2023-05-02T04:15:22.560Z,1.90
2023-05-02T04:17:48.960Z,1.20
2023-05-02T04:20:15.320Z,1.65
2023-05-02T04:22:41.645Z,1.70
2023-05-02T04:25:08.429Z,1.80
2023-05-02T04:27:34.748Z,2.08
2023-05-02T04:30:01.388Z,1.83
2023-05-02T04:32:28.133Z,1.75
2023-05-02T04:34:54.478Z,1.70
2023-05-02T04:37:21.313Z,2.10
2023-05-02T04:39:47.720Z,2.00
2023-05-02T04:42:14.031Z,1.90
2023-05-02T04:44:40.306Z,2.28
2023-05-02T04:47:07.142Z,1.87
2023-05-02T04:49:33.467Z,2.35
2023-05-02T04:51:59.856Z,1.80
2023-05-02T04:54:26.218Z,1.88
2023-05-02T04:56:52.549Z,2.03
2023-05-02T04:59:18.834Z,1.70
2023-05-02T05:01:45.382Z,1.90
2023-05-02T05:04:11.908Z,2.20
2023-05-02T05:06:38.446Z,2.08
2023-05-02T05:09:04.938Z,1.88
2023-05-02T05:11:31.337Z,1.97
2023-05-02T05:13:57.678Z,2.03
2023-05-02T05:16:24.033Z,1.63
2023-05-02T05:18:50.343Z,1.67
2023-05-02T05:21:16.984Z,2.20
2023-05-02T05:23:43.314Z,2.03
2023-05-02T05:26:14.266Z,2.38
2023-05-02T05:28:41.142Z,1.95
2023-05-02T05:31:09.107Z,1.75
2023-05-02T05:33:36.513Z,2.28
2023-05-02T05:36:10.209Z,2.43
2023-05-02T05:38:37.246Z,1.90
2023-05-02T05:41:04.367Z,2.00
2023-05-02T05:43:31.066Z,1.75
2023-05-02T05:45:57.396Z,1.75
2023-05-02T05:48:23.880Z,1.70
2023-05-02T05:50:50.333Z,2.00
2023-05-02T05:53:16.649Z,1.70
2023-05-02T05:55:43.023Z,1.85
2023-05-02T05:58:09.444Z,1.90
2023-05-02T06:00:37.152Z,1.52
2023-05-02T06:03:03.865Z,1.65
2023-05-02T06:05:31.264Z,2.00
2023-05-02T06:07:58.031Z,2.10
2023-05-02T06:10:25.053Z,1.45
2023-05-02T06:12:51.917Z,1.20
2023-05-02T06:15:18.333Z,1.38
2023-05-02T06:17:44.795Z,1.80
2023-05-02T06:20:11.555Z,1.10
2023-05-02T06:22:37.902Z,1.90
2023-05-02T06:25:04.501Z,1.50
2023-05-02T06:27:33.471Z,1.50
2023-05-02T06:30:00.374Z,1.27
2023-05-02T06:32:32.801Z,1.48
2023-05-02T06:34:59.227Z,1.60
2023-05-02T06:37:25.605Z,1.42
2023-05-02T06:39:52.051Z,1.92
2023-05-02T06:42:18.733Z,2.08
2023-05-02T06:44:45.065Z,1.70
2023-05-02T06:47:11.456Z,2.30
2023-05-02T06:49:38.331Z,3.13
2023-05-02T06:52:04.654Z,1.50
2023-05-02T06:54:31.052Z,2.40
2023-05-02T06:56:57.424Z,2.58
2023-05-02T06:59:23.742Z,2.10
2023-05-02T07:01:50.113Z,2.10
2023-05-02T07:04:16.443Z,1.45
2023-05-02T07:06:43.456Z,2.05
2023-05-02T07:09:09.881Z,2.10
2023-05-02T07:11:36.247Z,1.77
2023-05-02T07:14:02.593Z,1.53
2023-05-02T07:16:29.047Z,1.60
2023-05-02T07:18:55.454Z,1.77
2023-05-02T07:21:21.845Z,1.95
2023-05-02T07:23:48.216Z,1.70
2023-05-02T07:26:14.701Z,1.98
2023-05-02T07:28:41.034Z,1.58
2023-05-02T07:31:07.500Z,2.22
2023-05-02T07:33:33.878Z,1.50
2023-05-02T07:36:01.836Z,1.45
2023-05-02T07:38:28.264Z,1.87
2023-05-02T07:40:58.283Z,1.55
2023-05-02T07:43:24.691Z,1.50
2023-05-02T07:45:51.043Z,1.65
2023-05-02T07:48:17.410Z,1.65
2023-05-02T07:50:43.800Z,1.77
2023-05-02T07:53:10.106Z,1.65
2023-05-02T07:55:36.423Z,1.45
2023-05-02T07:58:02.722Z,1.30
2023-05-02T08:00:29.040Z,1.70
2023-05-02T08:02:56.599Z,1.20
2023-05-02T08:05:22.992Z,1.60
2023-05-02T08:07:49.269Z,1.13
2023-05-02T08:10:15.548Z,1.60
2023-05-02T08:12:42.379Z,1.40
2023-05-02T08:15:11.637Z,1.60
2023-05-02T08:17:38.423Z,1.88
2023-05-02T08:20:05.212Z,2.42
2023-05-02T08:22:31.515Z,2.53
2023-05-02T08:24:57.984Z,2.17
2023-05-02T08:27:24.384Z,1.73
2023-05-02T08:29:50.798Z,1.80
2023-05-02T08:32:17.434Z,1.90
2023-05-02T08:34:44.013Z,1.95
2023-05-02T08:37:10.751Z,1.80
2023-05-02T08:39:37.072Z,1.43
2023-05-02T08:42:07.830Z,1.60
2023-05-02T08:44:34.233Z,1.52
2023-05-02T08:47:01.335Z,1.48
2023-05-02T08:49:31.336Z,1.50
2023-05-02T08:52:00.206Z,1.50
2023-05-02T08:54:26.661Z,1.70
2023-05-02T08:56:54.363Z,1.27
2023-05-02T08:59:20.809Z,1.50
2023-05-02T09:01:52.191Z,1.60
2023-05-02T09:04:23.662Z,1.75
2023-05-02T09:06:50.210Z,1.52
2023-05-02T09:09:18.431Z,1.30
2023-05-02T09:11:47.008Z,1.65
2023-05-02T09:14:17.103Z,1.65
2023-05-02T09:16:43.734Z,1.90
2023-05-02T09:19:10.802Z,1.83
2023-05-02T09:21:39.364Z,1.95
2023-05-02T09:24:22.346Z,1.80
2023-05-02T09:27:02.861Z,1.48
2023-05-02T09:29:33.526Z,2.23
2023-05-02T09:31:59.940Z,1.52
2023-05-02T09:34:26.318Z,1.70
2023-05-02T09:36:52.789Z,1.50
2023-05-02T09:39:26.813Z,1.70
2023-05-02T09:41:54.159Z,1.92
2023-05-02T09:44:23.122Z,2.00
2023-05-02T09:46:51.340Z,1.50
2023-05-02T09:49:18.718Z,1.35
2023-05-02T09:51:46.863Z,1.60
2023-05-02T09:54:14.462Z,5.05
2023-05-02T09:56:56.693Z,1.50
2023-05-02T09:59:23.904Z,1.40
2023-05-02T10:01:58.206Z,1.50
2023-05-02T10:04:25.753Z,1.80
2023-05-02T10:06:53.689Z,1.75
2023-05-02T10:09:21.881Z,1.67
2023-05-02T10:11:52.680Z,1.65
2023-05-02T10:14:21.035Z,1.70
2023-05-02T10:16:52.586Z,1.77
2023-05-02T10:19:29.476Z,1.93
2023-05-02T10:21:56.834Z,1.67
2023-05-02T10:24:24.564Z,1.92
2023-05-02T10:26:51.958Z,1.77
2023-05-02T10:29:18.715Z,1.77
2023-05-02T10:31:45.250Z,1.60
2023-05-02T10:34:12.415Z,1.73
2023-05-02T10:36:38.866Z,2.47
2023-05-02T10:39:06.896Z,2.13
2023-05-02T10:41:35.123Z,1.75
2023-05-02T10:44:02.653Z,1.53
2023-05-02T10:46:39.792Z,1.70
2023-05-02T10:49:08.890Z,1.50
2023-05-02T10:51:36.967Z,1.67
2023-05-02T10:54:25.534Z,1.63
2023-05-02T10:57:00.901Z,2.07
2023-05-02T10:59:29.464Z,1.80
2023-05-02T11:01:56.558Z,1.48
2023-05-02T11:04:23.783Z,1.60
2023-05-02T11:06:59.811Z,1.95
2023-05-02T11:09:29.056Z,1.70
2023-05-02T11:11:56.010Z,7.43
2023-05-02T11:14:25.164Z,2.75
2023-05-02T11:16:57.843Z,2.17
2023-05-02T11:19:25.100Z,2.13
2023-05-02T11:21:51.673Z,2.10
2023-05-02T11:24:37.894Z,2.58
2023-05-02T11:27:28.836Z,2.00
2023-05-02T11:29:56.343Z,1.88
2023-05-02T11:32:23.531Z,2.05
2023-05-02T11:34:49.955Z,2.33
2023-05-02T11:37:16.539Z,1.90
2023-05-02T11:39:43.002Z,2.17
2023-05-02T11:42:09.405Z,2.35
2023-05-02T11:44:56.132Z,1.90
2023-05-02T11:47:22.521Z,2.13
2023-05-02T11:49:48.940Z,2.13
2023-05-02T11:52:16.302Z,2.10
2023-05-02T11:54:42.856Z,4.57
2023-05-02T11:57:09.392Z,3.55
2023-05-02T11:59:53.827Z,2.57
2023-05-02T12:02:20.673Z,1.90
2023-05-02T12:04:47.040Z,2.00
2023-05-02T12:07:13.455Z,2.30
2023-05-02T12:09:53.310Z,2.35
2023-05-02T12:12:21.380Z,2.30
2023-05-02T12:14:48.289Z,1.92
2023-05-02T12:17:14.869Z,2.05
2023-05-02T12:19:41.409Z,2.20
2023-05-02T12:22:09.110Z,2.30
2023-05-02T12:24:36.046Z,3.03
2023-05-02T12:27:15.874Z,2.22
2023-05-02T12:29:45.077Z,2.65
2023-05-02T12:32:12.177Z,2.45
2023-05-02T12:34:39.481Z,2.45
2023-05-02T12:37:07.193Z,2.00
2023-05-02T12:39:43.036Z,1.73
2023-05-02T12:42:13.728Z,2.33
2023-05-02T12:44:42.306Z,2.20
2023-05-02T12:47:11.554Z,2.10
2023-05-02T12:49:55.360Z,2.00
2023-05-02T12:52:48.863Z,2.28
2023-05-02T12:55:26.456Z,2.42
2023-05-02T12:58:07.331Z,2.45
2023-05-02T13:00:38.428Z,3.35
2023-05-02T13:03:05.871Z,2.60
2023-05-02T13:05:32.427Z,2.45
2023-05-02T13:07:58.830Z,2.20
2023-05-02T13:10:25.922Z,2.10
2023-05-02T13:12:53.847Z,2.28
2023-05-02T13:15:21.638Z,2.00
2023-05-02T13:17:51.202Z,2.53
2023-05-02T13:20:17.865Z,2.20
2023-05-02T13:22:44.340Z,2.25
2023-05-02T13:25:10.607Z,2.25
2023-05-02T13:27:36.908Z,1.90
2023-05-02T13:30:07.497Z,2.33
2023-05-02T13:32:35.301Z,1.98
2023-05-02T13:35:01.730Z,2.13
2023-05-02T13:37:28.017Z,1.98
2023-05-02T13:39:54.397Z,2.30
2023-05-02T13:42:20.694Z,2.00
2023-05-02T13:44:47.115Z,2.33
2023-05-02T13:47:13.468Z,1.95
2023-05-02T13:49:39.801Z,2.13
2023-05-02T13:52:06.147Z,1.97
2023-05-02T13:54:32.583Z,2.05
2023-05-02T13:56:59.443Z,1.85
2023-05-02T13:59:25.825Z,2.35
2023-05-02T14:01:52.261Z,2.10
2023-05-02T14:04:18.694Z,2.20
2023-05-02T14:06:45.055Z,1.90
2023-05-02T14:09:11.420Z,2.10
2023-05-02T14:11:37.734Z,2.22
2023-05-02T14:14:04.033Z,2.30
2023-05-02T14:16:30.498Z,1.70
2023-05-02T14:18:57.005Z,1.67
2023-05-02T14:21:23.445Z,2.25
2023-05-02T14:23:49.751Z,1.77
2023-05-02T14:26:16.151Z,1.98
2023-05-02T14:28:42.547Z,2.17
2023-05-02T14:31:08.914Z,2.00
2023-05-02T14:33:35.353Z,2.10
2023-05-02T14:36:01.734Z,1.50
2023-05-02T14:38:28.021Z,1.67
2023-05-02T14:40:54.465Z,1.63
2023-05-02T14:43:20.939Z,1.85
2023-05-02T14:45:47.232Z,1.73
2023-05-02T14:48:13.657Z,1.70
2023-05-02T14:50:40.222Z,1.80
2023-05-02T14:53:06.609Z,1.80
2023-05-02T14:55:39.651Z,2.90
2023-05-02T14:58:06.991Z,2.08
2023-05-02T15:00:34.378Z,1.75
2023-05-02T15:03:00.809Z,1.85
2023-05-02T15:05:27.649Z,1.87
2023-05-02T15:07:54.073Z,1.35
2023-05-02T15:10:20.435Z,1.98
2023-05-02T15:12:46.796Z,1.80
2023-05-02T15:15:13.167Z,1.48
2023-05-02T15:17:39.599Z,1.60
2023-05-02T15:20:06.727Z,1.90
2023-05-02T15:22:33.287Z,1.77
2023-05-02T15:24:59.664Z,1.20
2023-05-02T15:27:26.016Z,1.77
2023-05-02T15:29:52.404Z,1.57
2023-05-02T15:32:18.863Z,1.33
2023-05-02T15:34:46.196Z,1.70
2023-05-02T15:37:12.573Z,1.73
2023-05-02T15:39:39.029Z,1.52
2023-05-02T15:42:06.028Z,1.93
2023-05-02T15:44:36.340Z,1.70
2023-05-02T15:47:03.356Z,1.80
2023-05-02T15:49:30.160Z,1.50
2023-05-02T15:51:56.424Z,1.40
2023-05-02T15:54:22.805Z,1.70
2023-05-02T15:56:49.135Z,1.40
2023-05-02T15:59:15.622Z,1.48
2023-05-02T16:01:41.997Z,1.67
2023-05-02T16:04:08.775Z,1.80
2023-05-02T16:06:35.773Z,2.13
2023-05-02T16:09:04.746Z,2.00
2023-05-02T16:11:31.080Z,2.47
2023-05-02T16:13:57.369Z,1.60
2023-05-02T16:16:23.710Z,1.73
2023-05-02T16:18:50.117Z,1.33
2023-05-02T16:21:16.482Z,1.55
2023-05-02T16:23:42.863Z,1.38
2023-05-02T16:26:09.321Z,1.67
2023-05-02T16:28:35.757Z,1.58
2023-05-02T16:31:08.916Z,1.60
2023-05-02T16:33:36.335Z,1.40
2023-05-02T16:36:04.159Z,1.13
2023-05-02T16:38:30.916Z,1.58
2023-05-02T16:40:57.290Z,1.50
2023-05-02T16:43:24.302Z,1.50
2023-05-02T16:46:04.380Z,1.20
2023-05-02T16:48:30.926Z,1.50
2023-05-02T16:50:57.908Z,1.50
2023-05-02T16:53:24.513Z,1.50
2023-05-02T16:55:50.894Z,1.40
2023-05-02T16:58:17.180Z,1.30
2023-05-02T17:00:43.582Z,1.40
2023-05-02T17:03:10.380Z,1.40
2023-05-02T17:05:36.885Z,1.30
2023-05-02T17:08:03.514Z,1.23
2023-05-02T17:10:30.080Z,1.50
2023-05-02T17:12:56.388Z,1.27
2023-05-02T17:15:22.993Z,1.40
2023-05-02T17:17:49.324Z,1.50
2023-05-02T17:20:15.676Z,1.50
2023-05-02T17:22:42.036Z,1.27
2023-05-02T17:25:09.537Z,1.38
2023-05-02T17:27:37.732Z,1.30
2023-05-02T17:30:07.251Z,1.45
2023-05-02T17:32:33.663Z,1.40
2023-05-02T17:35:00.239Z,1.30
2023-05-02T17:37:26.628Z,1.27
2023-05-02T17:39:53.005Z,1.20
2023-05-02T17:42:19.310Z,1.30
2023-05-02T17:44:45.752Z,1.40
2023-05-02T17:47:12.183Z,1.40
2023-05-02T17:49:38.508Z,1.30
2023-05-02T17:52:04.890Z,1.25
2023-05-02T17:54:31.186Z,1.30
2023-05-02T17:56:57.504Z,1.17
2023-05-02T17:59:23.901Z,1.40
2023-05-02T18:01:50.239Z,1.40
2023-05-02T18:04:16.613Z,1.33
2023-05-02T18:06:43.295Z,1.40
2023-05-02T18:09:09.587Z,1.13
2023-05-02T18:11:36.017Z,1.63
2023-05-02T18:14:02.389Z,1.73
2023-05-02T18:16:29.083Z,1.77
2023-05-02T18:18:55.507Z,1.40
2023-05-02T18:21:22.860Z,1.60
2023-05-02T18:23:49.302Z,1.38
2023-05-02T18:26:15.656Z,1.55
2023-05-02T18:28:42.818Z,1.77
2023-05-02T18:31:16.847Z,1.40
2023-05-02T18:33:43.186Z,1.63
2023-05-02T18:36:09.558Z,1.73
2023-05-02T18:38:35.844Z,1.15
2023-05-02T18:41:02.202Z,1.02
2023-05-02T18:43:28.564Z,1.23
2023-05-02T18:45:54.887Z,1.47
2023-05-02T18:48:21.227Z,1.52
2023-05-02T18:50:47.527Z,1.20
2023-05-02T18:53:13.802Z,1.20
2023-05-02T18:55:40.096Z,1.20
2023-05-02T18:58:06.472Z,1.43
2023-05-02T19:00:34.352Z,1.13
2023-05-02T19:03:01.989Z,1.42
2023-05-02T19:05:28.415Z,1.40
2023-05-02T19:07:54.836Z,1.27
2023-05-02T19:10:21.184Z,1.50
2023-05-02T19:12:47.474Z,1.52
2023-05-02T19:15:13.751Z,1.30
2023-05-02T19:17:40.150Z,1.40
2023-05-02T19:20:07.381Z,1.23
2023-05-02T19:22:36.433Z,1.30
2023-05-02T19:25:04.101Z,1.38
2023-05-02T19:27:30.714Z,1.30
2023-05-02T19:29:57.105Z,1.25
2023-05-02T19:32:23.514Z,1.20
2023-05-02T19:34:49.890Z,2.17
2023-05-02T19:37:16.309Z,1.40
2023-05-02T19:39:42.615Z,1.50
2023-05-02T19:42:08.893Z,1.80
2023-05-02T19:44:35.147Z,1.35
2023-05-02T19:47:01.414Z,1.30
2023-05-02T19:49:27.774Z,1.35
2023-05-02T19:51:54.099Z,1.20
2023-05-02T19:54:20.371Z,1.30
2023-05-02T19:56:46.688Z,1.30
2023-05-02T19:59:13.028Z,1.50
2023-05-02T20:01:39.402Z,1.58
2023-05-02T20:04:05.898Z,1.40
2023-05-02T20:06:32.364Z,1.48
2023-05-02T20:08:58.851Z,1.20
2023-05-02T20:11:25.230Z,1.90
2023-05-02T20:13:52.277Z,2.00
2023-05-02T20:16:18.777Z,1.90
2023-05-02T20:18:45.101Z,1.90
2023-05-02T20:21:11.649Z,1.95
2023-05-02T20:23:37.923Z,2.13
2023-05-02T20:26:04.307Z,1.63
2023-05-02T20:28:30.639Z,1.40
2023-05-02T20:30:56.962Z,1.63
2023-05-02T20:33:27.544Z,1.50
2023-05-02T20:35:56.602Z,1.47
2023-05-02T20:38:22.924Z,1.60
2023-05-02T20:40:50.184Z,1.40
2023-05-02T20:43:17.297Z,1.27
2023-05-02T20:45:43.638Z,1.90
2023-05-02T20:48:10.217Z,1.20
2023-05-02T20:50:36.673Z,1.35
2023-05-02T20:53:03.061Z,1.20
2023-05-02T20:55:29.361Z,1.23
2023-05-02T20:57:55.700Z,1.30
2023-05-02T21:00:22.064Z,1.57
2023-05-02T21:02:48.531Z,1.08
2023-05-02T21:05:15.017Z,1.20
2023-05-02T21:07:41.502Z,1.20
2023-05-02T21:10:09.077Z,1.40
2023-05-02T21:12:36.032Z,1.38
2023-05-02T21:15:02.437Z,1.35
2023-05-02T21:17:28.883Z,1.50
2023-05-02T21:19:55.201Z,1.40
2023-05-02T21:22:21.742Z,1.50
2023-05-02T21:24:48.097Z,1.80
2023-05-02T21:27:14.423Z,1.20
2023-05-02T21:29:40.794Z,1.67
2023-05-02T21:32:07.178Z,1.17
2023-05-02T21:34:35.818Z,1.58
2023-05-02T21:37:02.201Z,1.10
2023-05-02T21:39:28.567Z,1.38
2023-05-02T21:41:54.897Z,1.33
2023-05-02T21:44:21.185Z,1.48
2023-05-02T21:46:47.620Z,1.50
2023-05-02T21:49:14.098Z,1.17
2023-05-02T21:51:40.513Z,1.23
2023-05-02T21:54:06.810Z,1.15
2023-05-02T21:56:33.186Z,1.50
2023-05-02T21:58:59.535Z,1.25
2023-05-02T22:01:25.821Z,1.60
2023-05-02T22:03:52.213Z,1.98
2023-05-02T22:06:18.538Z,1.10
2023-05-02T22:08:44.937Z,1.48
2023-05-02T22:11:11.270Z,1.30
2023-05-02T22:13:37.758Z,1.40
2023-05-02T22:16:04.444Z,1.38
2023-05-02T22:18:30.860Z,1.20
2023-05-02T22:20:57.206Z,1.38
2023-05-02T22:23:23.511Z,1.50
2023-05-02T22:25:49.842Z,1.50
2023-05-02T22:28:16.180Z,1.45
2023-05-02T22:30:42.666Z,1.13
2023-05-02T22:33:09.195Z,1.38
2023-05-02T22:35:38.767Z,1.20
2023-05-02T22:38:07.683Z,1.40
2023-05-02T22:40:42.439Z,1.50
2023-05-02T22:43:21.072Z,1.13
2023-05-02T22:45:52.553Z,1.30
2023-05-02T22:48:26.016Z,1.58
2023-05-02T22:50:52.524Z,1.40
2023-05-02T22:53:20.085Z,1.17
2023-05-02T22:55:57.448Z,1.25
2023-05-02T22:58:23.798Z,1.38
2023-05-02T23:00:50.214Z,1.40
2023-05-02T23:03:16.736Z,1.50
2023-05-02T23:05:43.187Z,1.40
2023-05-02T23:08:12.688Z,1.23
2023-05-02T23:10:39.045Z,1.48
2023-05-02T23:13:05.316Z,1.30
2023-05-02T23:15:31.784Z,1.30
2023-05-02T23:17:58.220Z,1.48
2023-05-02T23:20:24.566Z,1.20
2023-05-02T23:22:50.884Z,1.20
2023-05-02T23:25:17.464Z,1.60
2023-05-02T23:27:43.853Z,1.92
2023-05-02T23:30:10.288Z,1.30
2023-05-02T23:32:37.158Z,1.63
2023-05-02T23:35:04.045Z,1.42
2023-05-02T23:37:30.517Z,1.70
2023-05-02T23:39:56.965Z,1.40
2023-05-02T23:42:23.328Z,1.30
2023-05-02T23:44:52.010Z,1.45
2023-05-02T23:47:18.315Z,1.25
2023-05-02T23:49:44.609Z,1.70
2023-05-02T23:52:11.007Z,1.42
2023-05-02T23:54:37.311Z,1.80
2023-05-02T23:57:03.714Z,1.63
2023-05-02T23:59:30.039Z,1.40
